Innerleithen, United Kingdom
Current Conditions -  °F | °C
As of 10:50 AM on Friday 21 Nov 2014 (Local Time) from EGPH Reporting Station
Scattered Clouds Scattered Clouds  
Wind Chill: 40°   Ceiling: Unl
Heat Index: 43°   Visibility: 5mi
Dew Point: 43°   Wind: 5mph
Humidity: 100%   Direction: 90°E
Pressure: 30.09"   Gusts: NA
Location:  55.62°N, 3.06°W
Report Text: EGPH 211050Z 09004KT 050V120 8000 FEW018 SCT042 06/06 Q1019
Loading
Personal Weather Stations






























Interactive Weather Map New forecast layout! Learn more

10-Day Weather Forecast

Advertisements
Track Severe Weather on mobile